createdAt,value
2022-09-28T00:02:08.552Z,0.00
2022-09-28T00:04:35.974Z,0.00
2022-09-28T00:07:03.397Z,0.00
2022-09-28T00:09:30.871Z,0.00
2022-09-28T00:11:58.651Z,0.00
2022-09-28T00:14:26.531Z,0.00
2022-09-28T00:16:53.922Z,0.00
2022-09-28T00:19:21.466Z,0.00
2022-09-28T00:21:48.991Z,0.25
2022-09-28T00:24:16.359Z,0.00
2022-09-28T00:26:46.070Z,0.03
2022-09-28T00:29:21.312Z,0.20
2022-09-28T00:31:49.329Z,0.20
2022-09-28T00:34:17.024Z,0.20
2022-09-28T00:36:45.824Z,0.00
2022-09-28T00:39:14.622Z,0.30
2022-09-28T00:41:42.378Z,0.00
2022-09-28T00:44:27.808Z,0.00
2022-09-28T00:47:07.348Z,0.15
2022-09-28T00:49:35.147Z,0.20
2022-09-28T00:52:03.746Z,0.47
2022-09-28T00:54:31.149Z,0.20
2022-09-28T00:56:58.892Z,0.45
2022-09-28T00:59:26.855Z,0.22
2022-09-28T01:01:54.244Z,0.10
2022-09-28T01:04:25.893Z,0.43
2022-09-28T01:06:57.307Z,0.10
2022-09-28T01:09:25.977Z,1.10
2022-09-28T01:11:53.332Z,0.55
2022-09-28T01:14:20.907Z,0.10
2022-09-28T01:17:03.628Z,0.55
2022-09-28T01:19:37.913Z,0.20
2022-09-28T01:22:40.603Z,0.68
2022-09-28T01:25:24.382Z,0.17
2022-09-28T01:27:53.391Z,0.00
2022-09-28T01:32:51.147Z,0.30
2022-09-28T01:35:18.496Z,0.15
2022-09-28T01:38:06.261Z,0.35
2022-09-28T01:40:35.144Z,0.68
2022-09-28T01:43:07.774Z,0.10
2022-09-28T01:45:39.574Z,0.22
2022-09-28T01:48:07.891Z,0.25
2022-09-28T01:50:37.584Z,0.05
2022-09-28T01:53:23.218Z,0.50
2022-09-28T01:55:55.541Z,0.00
2022-09-28T01:58:29.141Z,0.00
2022-09-28T02:01:16.761Z,0.20
2022-09-28T02:03:49.989Z,0.20
2022-09-28T02:06:18.677Z,0.32
2022-09-28T02:09:04.594Z,0.00
2022-09-28T02:11:33.492Z,0.08
2022-09-28T02:14:04.823Z,0.32
2022-09-28T02:16:32.195Z,0.20
2022-09-28T02:18:59.722Z,0.43
2022-09-28T02:21:33.089Z,0.35
2022-09-28T02:24:05.095Z,0.00
2022-09-28T02:26:39.907Z,0.20
2022-09-28T02:29:07.250Z,0.00
2022-09-28T02:31:34.783Z,0.00
2022-09-28T02:34:02.180Z,0.10
2022-09-28T02:36:29.813Z,0.35
2022-09-28T02:38:58.632Z,0.40
2022-09-28T02:42:07.306Z,0.20
2022-09-28T02:44:44.547Z,0.00
2022-09-28T02:47:25.469Z,0.50
2022-09-28T02:50:00.896Z,0.00
2022-09-28T02:52:49.242Z,0.05
2022-09-28T02:55:16.564Z,0.00
2022-09-28T02:58:02.480Z,0.10
2022-09-28T03:00:31.416Z,0.20
2022-09-28T03:03:01.977Z,0.75
2022-09-28T03:05:45.564Z,0.38
2022-09-28T03:08:21.311Z,0.35
2022-09-28T03:10:55.745Z,0.20
2022-09-28T03:13:23.380Z,0.00
2022-09-28T03:15:50.764Z,1.65
2022-09-28T03:18:18.381Z,1.10
2022-09-28T03:20:45.756Z,0.55
2022-09-28T03:23:24.446Z,0.13
2022-09-28T03:25:52.501Z,0.52
2022-09-28T03:28:21.376Z,0.98
2022-09-28T03:30:48.697Z,0.38
2022-09-28T03:33:16.017Z,0.30
2022-09-28T03:35:43.349Z,0.85
2022-09-28T03:38:10.659Z,0.28
2022-09-28T03:40:37.967Z,0.00
2022-09-28T03:43:05.348Z,0.32
2022-09-28T03:45:32.725Z,0.75
2022-09-28T03:48:00.387Z,0.10
2022-09-28T03:50:27.699Z,0.77
2022-09-28T03:52:55.013Z,0.40
2022-09-28T03:55:22.346Z,0.47
2022-09-28T03:57:58.794Z,0.70
2022-09-28T04:00:26.166Z,0.17
2022-09-28T04:02:54.483Z,0.30
2022-09-28T04:05:21.879Z,0.50
2022-09-28T04:07:49.292Z,0.38
2022-09-28T04:10:16.649Z,0.55
2022-09-28T04:12:46.037Z,0.40
2022-09-28T04:15:13.397Z,0.50
2022-09-28T04:17:42.838Z,0.70
2022-09-28T04:20:10.407Z,0.28
2022-09-28T04:22:37.876Z,0.25
2022-09-28T04:25:05.746Z,0.00
2022-09-28T04:27:51.590Z,0.00
2022-09-28T04:30:19.242Z,0.57
2022-09-28T04:32:50.069Z,0.00
2022-09-28T04:35:17.414Z,0.00
2022-09-28T04:37:44.734Z,0.68
2022-09-28T04:40:12.093Z,0.55
2022-09-28T04:42:39.434Z,0.13
2022-09-28T04:45:07.088Z,0.88
2022-09-28T04:47:34.431Z,0.10
2022-09-28T04:50:01.812Z,0.40
2022-09-28T04:52:29.179Z,0.40
2022-09-28T04:54:56.519Z,0.00
2022-09-28T04:57:23.898Z,0.10
2022-09-28T04:59:51.237Z,1.40
2022-09-28T05:02:18.654Z,0.08
2022-09-28T05:04:46.057Z,0.10
2022-09-28T05:07:13.509Z,0.50
2022-09-28T05:09:40.851Z,0.73
2022-09-28T05:12:09.901Z,1.00
2022-09-28T05:17:04.477Z,0.70
2022-09-28T05:19:32.316Z,0.28
2022-09-28T05:22:00.625Z,0.70
2022-09-28T05:24:28.025Z,0.20
2022-09-28T05:26:55.385Z,0.30
2022-09-28T05:29:22.731Z,0.60
2022-09-28T05:31:50.084Z,0.47
2022-09-28T05:34:17.449Z,0.08
2022-09-28T05:36:45.872Z,0.40
2022-09-28T05:39:13.301Z,0.20
2022-09-28T05:41:40.648Z,0.38
2022-09-28T05:44:08.059Z,1.60
2022-09-28T05:46:35.384Z,0.60
2022-09-28T05:49:02.699Z,0.40
2022-09-28T05:51:30.148Z,0.20
2022-09-28T05:54:01.843Z,0.80
2022-09-28T05:56:32.295Z,0.60
2022-09-28T05:58:59.772Z,0.10
2022-09-28T06:01:27.152Z,0.60
2022-09-28T06:03:54.656Z,0.65
2022-09-28T06:06:22.026Z,0.52
2022-09-28T06:08:49.563Z,0.45
2022-09-28T06:11:16.863Z,0.98
2022-09-28T06:13:44.185Z,0.57
2022-09-28T06:16:15.600Z,0.55
2022-09-28T06:18:43.058Z,0.52
2022-09-28T06:21:11.490Z,0.75
2022-09-28T06:23:40.514Z,0.90
2022-09-28T06:26:08.446Z,2.15
2022-09-28T06:28:35.907Z,0.57
2022-09-28T06:31:03.322Z,0.75
2022-09-28T06:33:30.767Z,0.17
2022-09-28T06:35:59.954Z,0.90
2022-09-28T06:38:27.373Z,0.75
2022-09-28T06:40:54.874Z,0.55
2022-09-28T06:43:22.434Z,1.10
2022-09-28T06:45:53.931Z,0.75
2022-09-28T06:48:21.351Z,0.57
2022-09-28T06:50:51.609Z,0.85
2022-09-28T06:53:19.387Z,0.45
2022-09-28T06:55:50.635Z,0.85
2022-09-28T06:58:19.679Z,1.10
2022-09-28T07:03:17.630Z,0.75
2022-09-28T07:05:47.057Z,1.55
2022-09-28T07:08:16.018Z,0.90
2022-09-28T07:10:44.306Z,1.20
2022-09-28T07:13:29.710Z,0.57
2022-09-28T07:16:02.098Z,1.65
2022-09-28T07:18:30.112Z,0.68
2022-09-28T07:20:57.693Z,1.30
2022-09-28T07:23:27.581Z,1.08
2022-09-28T07:25:54.935Z,1.30
2022-09-28T07:28:22.541Z,0.65
2022-09-28T07:30:49.881Z,0.90
2022-09-28T07:33:17.982Z,1.35
2022-09-28T07:35:55.762Z,0.38
2022-09-28T07:38:23.182Z,0.50
2022-09-28T07:41:09.215Z,0.82
2022-09-28T07:43:36.593Z,0.80
2022-09-28T07:46:04.564Z,0.38
2022-09-28T07:48:36.806Z,1.17
2022-09-28T07:51:04.536Z,1.05
2022-09-28T07:53:31.860Z,0.77
2022-09-28T07:56:08.127Z,1.27
2022-09-28T07:58:36.680Z,0.88
2022-09-28T08:01:06.387Z,0.40
2022-09-28T08:03:33.836Z,0.45
2022-09-28T08:06:07.690Z,1.35
2022-09-28T08:08:35.821Z,0.70
2022-09-28T08:11:03.396Z,0.63
2022-09-28T08:13:31.195Z,1.55
2022-09-28T08:16:02.010Z,1.15
2022-09-28T08:18:29.398Z,0.57
2022-09-28T08:21:15.289Z,1.73
2022-09-28T08:23:42.634Z,0.57
2022-09-28T08:26:14.629Z,1.15
2022-09-28T08:28:43.607Z,0.40
2022-09-28T08:31:11.076Z,0.57
2022-09-28T08:33:38.650Z,1.08
2022-09-28T08:36:10.302Z,0.80
2022-09-28T08:38:37.759Z,0.90
2022-09-28T08:41:23.886Z,0.45
2022-09-28T08:44:10.266Z,0.95
2022-09-28T08:46:43.275Z,0.63
2022-09-28T08:49:25.755Z,0.90
2022-09-28T08:51:56.324Z,0.57
2022-09-28T08:54:39.113Z,0.95
2022-09-28T08:57:21.193Z,1.20
2022-09-28T08:59:56.181Z,0.38
2022-09-28T09:02:28.753Z,0.20
2022-09-28T09:04:57.098Z,1.00
2022-09-28T09:07:34.803Z,0.43
2022-09-28T09:10:02.069Z,1.20
2022-09-28T09:13:00.852Z,0.75
2022-09-28T09:18:37.687Z,0.30
2022-09-28T09:21:15.796Z,0.25
2022-09-28T09:23:43.196Z,0.70
2022-09-28T09:26:16.669Z,0.40
2022-09-28T09:28:49.151Z,0.28
2022-09-28T09:31:29.230Z,0.47
2022-09-28T09:34:11.570Z,0.40
2022-09-28T09:36:59.935Z,0.28
2022-09-28T09:40:01.586Z,0.45
2022-09-28T09:42:29.851Z,0.28
2022-09-28T09:45:09.668Z,0.15
2022-09-28T09:47:40.285Z,0.15
2022-09-28T09:50:25.341Z,0.13
2022-09-28T09:53:16.473Z,0.15
2022-09-28T09:55:48.145Z,0.25
2022-09-28T09:58:21.943Z,0.03
2022-09-28T10:00:52.710Z,0.15
2022-09-28T10:03:28.981Z,0.35
2022-09-28T10:05:59.169Z,0.10
2022-09-28T10:08:27.611Z,0.20
2022-09-28T10:11:08.553Z,0.00
2022-09-28T10:13:36.084Z,0.00
2022-09-28T10:16:03.804Z,0.10
2022-09-28T10:18:31.102Z,0.00
2022-09-28T10:20:58.426Z,0.00
2022-09-28T10:23:29.458Z,0.00
2022-09-28T10:26:01.238Z,0.20
2022-09-28T10:28:40.812Z,0.20
2022-09-28T10:31:28.116Z,0.45
2022-09-28T10:33:58.175Z,0.10
2022-09-28T10:36:26.411Z,0.03
2022-09-28T10:38:54.582Z,0.38
2022-09-28T10:41:23.098Z,0.30
2022-09-28T10:44:06.340Z,0.30
2022-09-28T10:46:35.238Z,0.30
2022-09-28T10:49:04.439Z,0.20
2022-09-28T10:51:41.926Z,0.10
2022-09-28T10:54:16.157Z,0.00
2022-09-28T10:56:43.948Z,0.00
2022-09-28T10:59:29.491Z,0.00
2022-09-28T11:02:00.035Z,0.52
2022-09-28T11:04:34.717Z,0.05
2022-09-28T11:07:02.451Z,0.00
2022-09-28T11:09:36.167Z,0.20
2022-09-28T11:12:06.186Z,0.10
2022-09-28T11:14:42.218Z,0.08
2022-09-28T11:17:25.921Z,0.52
2022-09-28T11:19:53.939Z,0.22
2022-09-28T11:22:22.540Z,0.73
2022-09-28T11:24:50.546Z,0.73
2022-09-28T11:27:25.509Z,0.20
2022-09-28T11:30:02.299Z,1.20
2022-09-28T11:32:32.189Z,0.10
2022-09-28T11:35:00.683Z,0.00
2022-09-28T11:37:51.287Z,0.00
2022-09-28T11:40:24.809Z,0.10
2022-09-28T11:43:17.101Z,0.00
2022-09-28T11:46:14.380Z,0.00
2022-09-28T11:48:49.458Z,0.00
2022-09-28T11:51:19.455Z,0.10
2022-09-28T11:53:51.486Z,0.05
2022-09-28T11:56:27.826Z,0.00
2022-09-28T11:59:00.580Z,0.10
2022-09-28T12:01:36.176Z,0.10
2022-09-28T12:04:07.394Z,0.03
2022-09-28T12:06:59.189Z,0.00
2022-09-28T12:09:40.123Z,0.00
2022-09-28T12:12:43.678Z,0.00
2022-09-28T12:15:47.191Z,0.03
2022-09-28T12:18:21.334Z,0.00
2022-09-28T12:21:22.586Z,0.45
2022-09-28T12:23:51.744Z,0.20
2022-09-28T12:26:35.895Z,0.10
2022-09-28T12:29:14.160Z,0.03
2022-09-28T12:31:58.844Z,0.25
2022-09-28T12:34:26.293Z,0.17
2022-09-28T12:37:22.786Z,0.10
2022-09-28T12:39:59.932Z,0.20
2022-09-28T12:43:04.556Z,0.13
2022-09-28T12:45:53.213Z,0.22
2022-09-28T12:48:28.104Z,0.10
2022-09-28T12:51:32.799Z,0.30
2022-09-28T12:54:02.299Z,0.20
2022-09-28T12:56:48.257Z,0.20
2022-09-28T12:59:30.778Z,0.30
2022-09-28T13:02:25.517Z,0.82
2022-09-28T13:04:55.620Z,2.15
2022-09-28T13:07:38.078Z,2.13
2022-09-28T13:10:16.997Z,0.65
2022-09-28T13:12:58.528Z,0.57
2022-09-28T13:15:41.425Z,2.13
2022-09-28T13:18:08.834Z,13.35
2022-09-28T13:21:04.211Z,13.90
2022-09-28T13:23:36.139Z,8.68
2022-09-28T13:26:06.818Z,4.38
2022-09-28T13:28:35.684Z,3.63
2022-09-28T13:33:37.090Z,0.40
2022-09-28T13:36:47.806Z,0.10
2022-09-28T13:39:37.705Z,0.10
2022-09-28T13:42:07.584Z,0.28
2022-09-28T13:45:17.309Z,0.20
2022-09-28T13:47:54.007Z,0.65
2022-09-28T13:50:21.326Z,0.10
2022-09-28T13:53:16.325Z,0.13
2022-09-28T13:56:02.283Z,0.85
2022-09-28T13:58:39.306Z,0.25
2022-09-28T14:01:19.004Z,0.20
2022-09-28T14:04:19.242Z,0.50
2022-09-28T14:07:11.253Z,0.32
2022-09-28T14:09:48.376Z,0.20
2022-09-28T14:12:44.555Z,0.15
2022-09-28T14:15:29.846Z,0.32
2022-09-28T14:18:07.420Z,0.30
2022-09-28T14:20:38.978Z,0.05
2022-09-28T14:23:44.027Z,0.28
2022-09-28T14:26:23.395Z,1.05
2022-09-28T14:29:10.127Z,0.45
2022-09-28T14:31:42.494Z,0.00
2022-09-28T14:34:23.424Z,0.10
2022-09-28T14:37:09.360Z,0.10
2022-09-28T14:39:56.538Z,0.40
2022-09-28T14:42:25.150Z,0.10
2022-09-28T14:45:06.745Z,0.50
2022-09-28T14:47:37.560Z,0.20
2022-09-28T14:50:43.541Z,0.20
2022-09-28T14:53:20.290Z,0.03
2022-09-28T14:55:59.840Z,0.10
2022-09-28T14:58:29.927Z,0.10
2022-09-28T15:01:12.810Z,0.00
2022-09-28T15:03:42.235Z,0.82
2022-09-28T15:06:16.281Z,0.30
2022-09-28T15:08:43.752Z,0.10
2022-09-28T15:11:18.229Z,0.20
2022-09-28T15:13:46.129Z,0.00
2022-09-28T15:16:14.686Z,0.40
2022-09-28T15:18:58.525Z,0.20
2022-09-28T15:21:36.796Z,0.00
2022-09-28T15:24:04.507Z,0.20
2022-09-28T15:26:33.303Z,0.10
2022-09-28T15:29:03.464Z,0.10
2022-09-28T15:31:31.874Z,0.00
2022-09-28T15:34:18.216Z,0.30
2022-09-28T15:36:50.065Z,0.30
2022-09-28T15:39:26.611Z,0.10
2022-09-28T15:41:54.084Z,0.35
2022-09-28T15:44:29.783Z,0.20
2022-09-28T15:47:16.885Z,0.30
2022-09-28T15:50:09.651Z,0.40
2022-09-28T15:53:06.435Z,0.10
2022-09-28T15:55:44.015Z,1.45
2022-09-28T15:58:17.273Z,0.85
2022-09-28T16:00:49.355Z,0.22
2022-09-28T16:03:29.653Z,0.20
2022-09-28T16:05:59.703Z,0.30
2022-09-28T16:08:48.949Z,0.13
2022-09-28T16:11:26.403Z,0.20
2022-09-28T16:14:07.481Z,0.10
2022-09-28T16:16:43.330Z,0.00
2022-09-28T16:19:23.524Z,0.00
2022-09-28T16:21:53.700Z,0.08
2022-09-28T16:24:34.071Z,0.75
2022-09-28T16:27:04.732Z,0.10
2022-09-28T16:29:40.044Z,0.00
2022-09-28T16:32:45.887Z,0.77
2022-09-28T16:35:23.571Z,0.20
2022-09-28T16:38:00.915Z,0.25
2022-09-28T16:40:28.646Z,0.43
2022-09-28T16:42:58.915Z,0.25
2022-09-28T16:45:26.359Z,0.70
2022-09-28T16:47:56.300Z,0.10
2022-09-28T16:50:24.552Z,0.00
2022-09-28T16:53:16.692Z,1.75
2022-09-28T16:55:44.221Z,0.20
2022-09-28T16:58:11.633Z,0.25
2022-09-28T17:00:38.999Z,0.20
2022-09-28T17:03:18.589Z,1.90
2022-09-28T17:05:48.090Z,0.57
2022-09-28T17:08:17.547Z,0.10
2022-09-28T17:11:13.850Z,0.32
2022-09-28T17:13:44.160Z,0.00
2022-09-28T17:16:13.560Z,0.25
2022-09-28T17:18:40.628Z,0.03
2022-09-28T17:21:11.010Z,0.98
2022-09-28T17:23:38.341Z,0.40
2022-09-28T17:26:06.262Z,0.20
2022-09-28T17:28:35.395Z,0.40
2022-09-28T17:31:03.668Z,0.32
2022-09-28T17:33:33.916Z,0.85
2022-09-28T17:36:02.417Z,0.30
2022-09-28T17:38:29.898Z,1.70
2022-09-28T17:40:57.310Z,0.10
2022-09-28T17:43:24.748Z,0.55
2022-09-28T17:45:52.173Z,0.38
2022-09-28T17:48:24.088Z,0.22
2022-09-28T17:50:51.672Z,0.30
2022-09-28T17:53:19.524Z,0.20
2022-09-28T17:55:46.850Z,0.22
2022-09-28T17:58:21.540Z,0.60
2022-09-28T18:00:51.297Z,0.25
2022-09-28T18:03:20.074Z,0.47
2022-09-28T18:05:49.122Z,0.40
2022-09-28T18:08:18.328Z,0.77
2022-09-28T18:10:47.078Z,1.45
2022-09-28T18:13:15.084Z,0.47
2022-09-28T18:15:42.709Z,0.53
2022-09-28T18:18:10.532Z,0.70
2022-09-28T18:20:38.066Z,0.52
2022-09-28T18:23:05.492Z,0.73
2022-09-28T18:25:32.814Z,0.30
2022-09-28T18:28:00.321Z,0.88
2022-09-28T18:30:28.485Z,0.75
2022-09-28T18:32:55.893Z,0.90
2022-09-28T18:35:23.528Z,1.20
2022-09-28T18:37:51.314Z,0.80
2022-09-28T18:40:19.585Z,0.22
2022-09-28T18:42:47.046Z,0.57
2022-09-28T18:45:14.423Z,0.45
2022-09-28T18:47:41.980Z,0.25
2022-09-28T18:50:09.735Z,0.38
2022-09-28T18:52:38.437Z,1.00
2022-09-28T18:55:06.748Z,1.63
2022-09-28T18:57:36.008Z,0.98
2022-09-28T19:00:06.285Z,0.95
2022-09-28T19:02:33.769Z,2.15
2022-09-28T19:05:01.196Z,1.30
2022-09-28T19:07:29.405Z,0.20
2022-09-28T19:09:56.775Z,0.68
2022-09-28T19:12:24.319Z,0.35
2022-09-28T19:14:51.776Z,0.77
2022-09-28T19:17:19.852Z,0.98
2022-09-28T19:19:47.112Z,0.33
2022-09-28T19:22:14.565Z,0.40
2022-09-28T19:24:41.837Z,0.57
2022-09-28T19:27:09.388Z,0.47
2022-09-28T19:29:39.712Z,0.35
2022-09-28T19:32:07.103Z,0.52
2022-09-28T19:34:34.504Z,0.50
2022-09-28T19:37:04.089Z,0.40
2022-09-28T19:39:31.491Z,0.88
2022-09-28T19:42:00.217Z,0.38
2022-09-28T19:44:29.042Z,0.57
2022-09-28T19:46:58.211Z,0.32
2022-09-28T19:49:26.575Z,0.30
2022-09-28T19:52:14.690Z,0.30
2022-09-28T19:54:56.943Z,0.47
2022-09-28T19:57:29.412Z,0.22
2022-09-28T20:00:02.153Z,0.90
2022-09-28T20:02:30.142Z,0.47
2022-09-28T20:04:57.536Z,0.93
2022-09-28T20:07:24.851Z,0.60
2022-09-28T20:09:52.182Z,1.10
2022-09-28T20:12:20.064Z,0.70
2022-09-28T20:14:47.433Z,0.55
2022-09-28T20:17:14.763Z,0.40
2022-09-28T20:19:42.454Z,0.47
2022-09-28T20:22:09.818Z,0.30
2022-09-28T20:24:37.132Z,1.10
2022-09-28T20:27:04.477Z,0.77
2022-09-28T20:29:33.461Z,0.38
2022-09-28T20:32:04.173Z,1.13
2022-09-28T20:34:34.124Z,0.73
2022-09-28T20:37:01.791Z,0.68
2022-09-28T20:39:29.343Z,0.38
2022-09-28T20:41:57.803Z,0.60
2022-09-28T20:44:25.105Z,0.45
2022-09-28T20:46:52.686Z,0.20
2022-09-28T20:49:19.981Z,0.45
2022-09-28T20:51:47.326Z,0.43
2022-09-28T20:54:14.733Z,0.50
2022-09-28T20:56:47.274Z,0.57
2022-09-28T20:59:14.944Z,1.00
2022-09-28T21:01:42.363Z,0.43
2022-09-28T21:04:11.104Z,0.73
2022-09-28T21:06:39.522Z,0.73
2022-09-28T21:09:08.151Z,0.20
2022-09-28T21:11:35.865Z,0.43
2022-09-28T21:14:04.561Z,0.20
2022-09-28T21:16:34.375Z,0.47
2022-09-28T21:19:01.786Z,0.40
2022-09-28T21:21:29.087Z,0.52
2022-09-28T21:23:56.960Z,0.40
2022-09-28T21:26:25.585Z,0.40
2022-09-28T21:28:56.896Z,0.50
2022-09-28T21:31:28.784Z,0.35
2022-09-28T21:33:57.184Z,0.45
2022-09-28T21:36:24.853Z,0.75
2022-09-28T21:38:52.301Z,0.22
2022-09-28T21:41:19.627Z,0.70
2022-09-28T21:43:46.928Z,0.73
2022-09-28T21:46:14.225Z,0.75
2022-09-28T21:48:41.644Z,0.68
2022-09-28T21:51:09.773Z,0.55
2022-09-28T21:53:38.136Z,0.75
2022-09-28T21:56:07.424Z,0.52
2022-09-28T21:58:35.947Z,0.40
2022-09-28T22:01:08.386Z,0.22
2022-09-28T22:03:36.683Z,1.10
2022-09-28T22:06:05.194Z,0.30
2022-09-28T22:08:32.738Z,0.57
2022-09-28T22:11:04.772Z,0.20
2022-09-28T22:13:33.200Z,0.30
2022-09-28T22:16:00.560Z,0.57
2022-09-28T22:18:28.923Z,0.95
2022-09-28T22:21:06.605Z,0.43
2022-09-28T22:23:34.316Z,0.30
2022-09-28T22:26:05.588Z,1.10
2022-09-28T22:28:32.884Z,0.20
2022-09-28T22:31:00.537Z,0.82
2022-09-28T22:33:28.319Z,0.43
2022-09-28T22:35:55.682Z,0.90
2022-09-28T22:38:24.633Z,0.03
2022-09-28T22:43:19.879Z,0.55
2022-09-28T22:45:47.193Z,0.20
2022-09-28T22:48:14.543Z,0.20
2022-09-28T22:50:50.522Z,0.20
2022-09-28T22:53:18.262Z,0.10
2022-09-28T22:55:45.685Z,0.80
2022-09-28T22:58:13.611Z,0.10
2022-09-28T23:00:40.926Z,0.28
2022-09-28T23:03:08.271Z,0.52
2022-09-28T23:05:35.660Z,0.20
2022-09-28T23:08:03.364Z,0.15
2022-09-28T23:10:30.706Z,0.20
2022-09-28T23:12:58.486Z,0.17
2022-09-28T23:15:26.429Z,0.63
2022-09-28T23:17:53.862Z,0.20
2022-09-28T23:20:21.625Z,0.10
2022-09-28T23:22:49.570Z,0.17
2022-09-28T23:25:17.807Z,0.60
2022-09-28T23:27:46.017Z,0.55
2022-09-28T23:30:13.447Z,0.38
2022-09-28T23:32:40.847Z,0.10
2022-09-28T23:35:08.502Z,0.90
2022-09-28T23:37:35.941Z,0.52
2022-09-28T23:40:03.865Z,0.45
2022-09-28T23:42:31.159Z,0.55
2022-09-28T23:44:58.475Z,0.13
2022-09-28T23:47:25.846Z,0.00
2022-09-28T23:49:53.171Z,0.28
2022-09-28T23:52:20.499Z,0.57
2022-09-28T23:54:47.763Z,0.32
2022-09-28T23:57:15.109Z,0.00
2022-09-28T23:59:42.381Z,0.10
